Hauptseite
Satellitenwetter 10-Tage PrognosenKlimaSeewetter Wirbelstürme Blitz FlughäfenFAQ Newsletter Über uns
Wetter : Europa Afrika Nordamerika Südamerika Asien Australien-Ozeanien Andere
Sprachen Kontakt

Stuttgart, Deutschland

Flughafen Stuttgart

Breite: 48-41N, Länge: 009-13E, Höhe: 396 m


METAR: EDDS 041620Z 29012KT CAVOK 06/M03 Q1026 NOSIG
TAF: EDDS 041100Z 0412/0512 27008KT 9999 SCT035 PROB30 TEMPO 0504/0509 RASN BECMG 0505/0509 33009KT

Zeit: 17:38 (16:38 UTC)

Beobachtung

Neuester Wetterbericht von vor 18 Minuten, um 16:20 UTC
Wind 12 kt aus West/Nordwest
Temperatur 6°C
Luftfeuchtigkeit 52%
Luftdruck 1026 hPa
Sichtweite 10 km oder mehr
keine Wolken unter 1500 m und keine Kumulonimbus oder Gewitterwolken

Maßeinheiten ändern

Prognose

Neuester Wetterbericht von vor 5 Stunden und 38 Minuten, um 11:00 UTC
Gültige Prognose vom 04 um 12 UTC bis 05 um 12 UTC
Wind 8 kt aus West
Sichtweite 10 km oder mehr
Aufgelockert bewölkt in der Höhe von 3500 ft
Wahrscheinlichkeit 30% :
Zeitweise
vom 05 um 04 UTC bis 05 um 09 UTC
Regen, Schnee
Übergehend zu
vom 05 um 05 UTC bis 05 um 09 UTC
Wind 9 kt aus Nord/Nordwest
Die Angaben auf diesen Webseiten unterliegen einer Erklärung über den Haftungsausschluss
Wetter : Europa Afrika Nordamerika Südamerika Asien Australien-Ozeanien Andere
Satellitenwetter 10-Tage PrognosenKlimaSeewetter Wirbelstürme Blitz FlughäfenFAQ Sprachen Kontakt Newsletter Über uns